Time;durP1;ratioP1;P1;durP2;ratioP2;P2;SDS_P1;SDS_P2;PMS_P1;PMS_P2;Temp;Humidity;BMP_temperature;BMP_pressure;BME280_temperature;BME280_humidity;BME280_pressure;Samples;Min_cycle;Max_cycle;Signal;HPM_P1;HPM_P2
2022/09/05 00:02:03;;;;;;;2.28;2.03;;;21.20;92.70;;;;;;5026630;28;20025;-78
2022/09/05 00:04:37;;;;;;;3.08;2.53;;;21.20;92.70;;;;;;5026960;28;20043;-78
2022/09/05 00:07:14;;;;;;;2.92;2.42;;;21.20;92.70;;;;;;5022235;28;20028;-78
2022/09/05 00:09:58;;;;;;;2.63;2.42;;;21.20;92.60;;;;;;5020544;28;20056;-78
2022/09/05 00:12:26;;;;;;;2.20;2.00;;;21.10;92.60;;;;;;5029221;28;20706;-77
2022/09/05 00:15:30;;;;;;;2.10;1.95;;;21.10;92.60;;;;;;5025178;28;20029;-78
2022/09/05 00:18:06;;;;;;;3.65;2.75;;;21.10;92.60;;;;;;5022271;28;20037;-77
2022/09/05 00:20:47;;;;;;;3.22;2.25;;;21.10;92.60;;;;;;5028993;28;20137;-78
2022/09/05 00:23:25;;;;;;;3.80;2.15;;;21.10;92.60;;;;;;5026293;28;20029;-77
2022/09/05 00:26:29;;;;;;;2.50;2.25;;;21.10;92.60;;;;;;5029780;28;20513;-77
2022/09/05 00:29:14;;;;;;;3.20;2.38;;;21.10;92.60;;;;;;5024836;28;20096;-77
2022/09/05 00:32:17;;;;;;;2.92;2.45;;;21.10;92.60;;;;;;5027404;28;20049;-77
2022/09/05 00:34:52;;;;;;;3.75;2.55;;;21.10;92.60;;;;;;5029971;28;20051;-77
2022/09/05 00:37:38;;;;;;;3.25;2.35;;;21.10;92.60;;;;;;5023199;28;20039;-77
2022/09/05 00:40:31;;;;;;;3.00;2.33;;;21.10;92.60;;;;;;5028121;28;20116;-77
2022/09/05 00:43:13;;;;;;;2.40;2.20;;;21.10;92.60;;;;;;5012214;28;20533;-77
2022/09/05 00:45:42;;;;;;;3.45;2.50;;;21.10;92.60;;;;;;5018406;28;20172;-77
2022/09/05 00:48:29;;;;;;;2.88;2.45;;;21.10;92.60;;;;;;5018041;28;20459;-77
2022/09/05 00:51:06;;;;;;;4.32;2.67;;;21.10;92.60;;;;;;5026482;28;20030;-77
2022/09/05 00:54:02;;;;;;;2.17;1.98;;;21.10;92.60;;;;;;5019895;28;20129;-77
2022/09/05 00:56:52;;;;;;;2.13;1.92;;;21.10;92.60;;;;;;5022752;28;20125;-77
2022/09/05 00:59:34;;;;;;;2.20;1.90;;;21.10;92.60;;;;;;5045100;28;20045;-77
2022/09/05 01:02:15;;;;;;;2.28;2.08;;;21.10;92.60;;;;;;5021162;28;20108;-77
2022/09/05 01:04:53;;;;;;;2.67;2.03;;;21.10;92.60;;;;;;5025901;28;20018;-77
2022/09/05 01:07:41;;;;;;;2.42;2.00;;;21.10;92.50;;;;;;5021970;28;20022;-77
2022/09/05 01:10:38;;;;;;;3.08;2.60;;;21.10;92.60;;;;;;5026461;28;20029;-77
2022/09/05 01:13:09;;;;;;;2.65;2.17;;;21.10;92.60;;;;;;5025389;28;20041;-77
2022/09/05 01:15:51;;;;;;;3.45;2.65;;;21.10;92.60;;;;;;5027034;28;20108;-77
2022/09/05 01:18:38;;;;;;;3.28;2.88;;;21.10;92.60;;;;;;5040265;28;20079;-77
2022/09/05 01:21:26;;;;;;;2.60;2.05;;;21.10;92.60;;;;;;5029871;28;20021;-77
2022/09/05 01:23:52;;;;;;;2.60;2.40;;;21.10;92.80;;;;;;5037969;28;20018;-77
2022/09/05 01:26:36;;;;;;;2.50;2.30;;;21.00;92.50;;;;;;5021845;28;20030;-77
2022/09/05 01:29:12;;;;;;;2.95;2.38;;;21.10;92.50;;;;;;5042959;28;20478;-77
2022/09/05 01:32:06;;;;;;;3.33;2.30;;;21.10;92.50;;;;;;5022201;28;20025;-77
2022/09/05 01:35:03;;;;;;;2.67;2.25;;;21.10;92.50;;;;;;5003411;28;20040;-77
2022/09/05 01:37:36;;;;;;;2.70;2.10;;;21.00;92.70;;;;;;5023606;28;20044;-77
2022/09/05 01:40:44;;;;;;;2.45;2.25;;;21.00;92.50;;;;;;5023788;28;20327;-78
2022/09/05 01:43:17;;;;;;;2.83;2.53;;;21.10;92.50;;;;;;5018710;28;20536;-77
2022/09/05 01:46:17;;;;;;;3.78;2.42;;;21.00;92.50;;;;;;5020029;28;20485;-77
2022/09/05 01:48:53;;;;;;;2.65;2.20;;;21.10;92.50;;;;;;5027508;28;20034;-77
2022/09/05 01:51:37;;;;;;;4.60;2.40;;;21.00;92.40;;;;;;5022803;28;20029;-77
2022/09/05 01:54:27;;;;;;;3.40;2.92;;;21.00;92.50;;;;;;5017392;28;20073;-78
2022/09/05 01:57:21;;;;;;;3.30;2.58;;;21.00;92.60;;;;;;5043460;28;20055;-77
2022/09/05 02:00:12;;;;;;;2.78;2.40;;;21.00;92.60;;;;;;5008208;28;20038;-77
2022/09/05 02:02:53;;;;;;;2.42;2.22;;;21.00;92.50;;;;;;5024743;28;20626;-78
2022/09/05 02:05:32;;;;;;;2.75;2.33;;;21.00;92.50;;;;;;5024788;28;20030;-77
2022/09/05 02:08:21;;;;;;;2.65;2.30;;;21.00;92.50;;;;;;5025431;28;20029;-77
2022/09/05 02:10:52;;;;;;;3.60;2.60;;;21.00;92.50;;;;;;5040954;28;20029;-77
2022/09/05 02:13:33;;;;;;;3.45;2.83;;;21.00;92.50;;;;;;5020789;28;20037;-77
2022/09/05 02:16:06;;;;;;;3.50;2.78;;;21.00;92.50;;;;;;5033274;28;20117;-77
2022/09/05 02:18:58;;;;;;;3.05;2.58;;;21.00;92.60;;;;;;5026381;28;20080;-77
2022/09/05 02:21:37;;;;;;;2.70;2.20;;;21.00;92.60;;;;;;5027386;28;20486;-77
2022/09/05 02:24:12;;;;;;;3.08;2.33;;;21.00;92.50;;;;;;5028257;28;20112;-77
2022/09/05 02:27:13;;;;;;;4.10;2.92;;;21.00;92.50;;;;;;5046821;28;20026;-77
2022/09/05 02:29:55;;;;;;;2.65;2.45;;;21.00;92.50;;;;;;5039671;28;20443;-77
2022/09/05 02:32:28;;;;;;;3.22;2.42;;;20.90;92.50;;;;;;5019985;28;20030;-77
2022/09/05 02:34:54;;;;;;;;;;;21.00;92.50;;;;;;5007328;28;20049;-77
2022/09/05 02:37:41;;;;;;;4.63;2.88;;;20.90;92.50;;;;;;5028198;28;20531;-77
2022/09/05 02:40:18;;;;;;;3.00;2.63;;;20.90;92.50;;;;;;5021633;28;20061;-77
2022/09/05 02:42:52;;;;;;;2.75;2.28;;;20.90;92.50;;;;;;5020507;28;20490;-77
2022/09/05 02:45:45;;;;;;;2.72;2.30;;;20.90;92.50;;;;;;5027338;28;20035;-77
2022/09/05 02:48:48;;;;;;;3.20;2.70;;;20.90;92.50;;;;;;5026197;28;20037;-77
2022/09/05 02:51:24;;;;;;;3.30;2.45;;;20.90;92.50;;;;;;5029367;28;20791;-77
2022/09/05 02:53:58;;;;;;;5.10;2.42;;;20.90;92.50;;;;;;5010462;28;20053;-77
2022/09/05 02:56:24;;;;;;;2.53;2.25;;;20.90;92.50;;;;;;5032566;28;20116;-77
2022/09/05 02:59:07;;;;;;;3.30;2.17;;;20.90;92.50;;;;;;5031727;28;20056;-77
2022/09/05 03:02:00;;;;;;;3.20;2.58;;;20.90;92.50;;;;;;5030783;28;20068;-77
2022/09/05 03:05:01;;;;;;;2.85;2.55;;;20.90;92.60;;;;;;5027487;28;20032;-78
2022/09/05 03:07:43;;;;;;;3.35;2.45;;;20.90;92.50;;;;;;5023286;28;20040;-77
2022/09/05 03:10:27;;;;;;;5.82;3.13;;;20.90;92.50;;;;;;5022910;28;20040;-77
2022/09/05 03:13:13;;;;;;;3.03;2.53;;;20.80;92.50;;;;;;5023957;28;20029;-77
2022/09/05 03:16:00;;;;;;;3.45;2.40;;;20.90;92.60;;;;;;5029711;28;20042;-78
2022/09/05 03:19:01;;;;;;;4.15;3.20;;;20.80;92.50;;;;;;5023841;28;20059;-77
2022/09/05 03:21:40;;;;;;;4.13;2.72;;;20.80;92.90;;;;;;5031132;28;20031;-78
2022/09/05 03:24:43;;;;;;;3.25;2.50;;;20.80;92.60;;;;;;5030828;28;20478;-77
2022/09/05 03:27:22;;;;;;;3.33;2.40;;;20.80;92.60;;;;;;5041661;28;20188;-77
2022/09/05 03:30:11;;;;;;;3.95;3.17;;;20.80;92.60;;;;;;5026136;28;20049;-77
2022/09/05 03:33:05;;;;;;;3.78;3.03;;;20.80;92.60;;;;;;5027955;28;20064;-77
2022/09/05 03:35:40;;;;;;;4.07;2.60;;;20.80;92.60;;;;;;5032119;28;20120;-77
2022/09/05 03:38:09;;;;;;;3.60;2.58;;;20.80;92.60;;;;;;5027595;28;20132;-77
2022/09/05 03:41:02;;;;;;;3.13;2.78;;;20.80;92.60;;;;;;5030431;28;20018;-77
2022/09/05 03:44:01;;;;;;;2.77;2.47;;;20.80;92.60;;;;;;5049115;28;20390;-77
2022/09/05 03:46:44;;;;;;;3.55;3.03;;;20.80;92.60;;;;;;5033854;28;20021;-77
2022/09/05 03:49:48;;;;;;;3.83;2.40;;;20.80;92.60;;;;;;5028304;28;20041;-77
2022/09/05 03:52:33;;;;;;;3.53;2.95;;;20.80;92.50;;;;;;5039267;28;20029;-77
2022/09/05 03:55:37;;;;;;;3.33;2.15;;;20.80;92.50;;;;;;5029301;28;20025;-77
2022/09/05 03:58:06;;;;;;;4.90;2.45;;;20.80;92.60;;;;;;5046221;28;20028;-77
2022/09/05 04:00:35;;;;;;;2.75;2.50;;;20.80;92.60;;;;;;5023933;28;20026;-77
2022/09/05 04:03:21;;;;;;;4.65;3.38;;;20.80;92.50;;;;;;5013297;28;20072;-77
2022/09/05 04:05:54;;;;;;;2.80;2.53;;;20.80;92.60;;;;;;5029997;28;20032;-78
2022/09/05 04:08:45;;;;;;;3.83;2.65;;;20.80;92.60;;;;;;5030730;28;20033;-77
2022/09/05 04:11:27;;;;;;;4.18;2.72;;;20.80;92.60;;;;;;5031896;28;20056;-77
2022/09/05 04:13:52;;;;;;;3.30;2.40;;;20.80;92.60;;;;;;5019483;28;20021;-77
2022/09/05 04:16:30;;;;;;;3.28;2.67;;;20.70;92.60;;;;;;5025995;28;20044;-77
2022/09/05 04:19:12;;;;;;;2.63;2.15;;;20.70;92.50;;;;;;5044054;28;20031;-77
2022/09/05 04:21:53;;;;;;;3.03;2.67;;;20.80;92.60;;;;;;5019300;28;20033;-77
2022/09/05 04:24:29;;;;;;;3.63;2.50;;;20.70;92.50;;;;;;5029957;28;20029;-77
2022/09/05 04:27:19;;;;;;;2.58;2.22;;;20.80;92.60;;;;;;5025972;28;20422;-77
2022/09/05 04:29:58;;;;;;;3.55;2.95;;;20.70;92.60;;;;;;5026446;28;20021;-77
2022/09/05 04:32:49;;;;;;;3.22;2.60;;;20.70;92.60;;;;;;5026417;28;20038;-77
2022/09/05 04:35:24;;;;;;;3.22;2.58;;;20.70;92.60;;;;;;5039172;28;20510;-77
2022/09/05 04:38:06;;;;;;;2.85;2.25;;;20.70;92.60;;;;;;5027427;28;20037;-77
2022/09/05 04:40:35;;;;;;;3.03;2.53;;;20.70;92.70;;;;;;5027787;28;20033;-77
2022/09/05 04:43:22;;;;;;;3.53;2.65;;;20.70;92.70;;;;;;5029425;28;20462;-78
2022/09/05 04:46:19;;;;;;;2.92;2.63;;;20.70;92.60;;;;;;5019848;28;20021;-77
2022/09/05 04:49:01;;;;;;;2.85;2.63;;;20.70;92.60;;;;;;5031835;28;20028;-77
2022/09/05 04:51:57;;;;;;;3.97;2.78;;;20.70;92.60;;;;;;5027518;28;20032;-77
2022/09/05 04:54:45;;;;;;;4.32;2.70;;;20.70;92.60;;;;;;5026647;28;20033;-78
2022/09/05 04:57:16;;;;;;;3.00;2.42;;;20.70;92.50;;;;;;5025520;28;20541;-78
2022/09/05 05:00:25;;;;;;;3.13;2.40;;;20.70;92.60;;;;;;5022272;28;20556;-78
2022/09/05 05:02:54;;;;;;;2.92;2.60;;;20.70;92.60;;;;;;5029039;28;20029;-78
2022/09/05 05:05:21;;;;;;;5.40;2.45;;;20.70;92.60;;;;;;5025723;28;20548;-77
2022/09/05 05:07:47;;;;;;;4.15;2.53;;;20.70;92.60;;;;;;5026918;28;20025;-77
2022/09/05 05:10:30;;;;;;;4.85;2.40;;;20.70;92.60;;;;;;5024421;28;20087;-77
2022/09/05 05:13:15;;;;;;;3.03;2.60;;;20.70;92.60;;;;;;5025958;28;20061;-76
2022/09/05 05:15:56;;;;;;;3.67;2.90;;;20.60;92.60;;;;;;5020096;28;20057;-77
2022/09/05 05:18:34;;;;;;;4.88;2.83;;;20.60;92.70;;;;;;5020698;28;20445;-77
2022/09/05 05:21:16;;;;;;;4.03;3.05;;;20.60;92.70;;;;;;5024422;28;20124;-78
2022/09/05 05:23:48;;;;;;;3.22;2.70;;;20.70;92.70;;;;;;5029479;28;20075;-78
2022/09/05 05:26:40;;;;;;;2.88;2.50;;;20.60;92.60;;;;;;5027360;28;20029;-77
2022/09/05 05:29:19;;;;;;;4.00;2.72;;;20.60;92.70;;;;;;5019487;28;20057;-77
2022/09/05 05:31:58;;;;;;;3.85;2.55;;;20.60;92.70;;;;;;5016637;28;20045;-77
2022/09/05 05:34:43;;;;;;;4.25;3.35;;;20.60;92.70;;;;;;5023848;28;20112;-77
2022/09/05 05:37:42;;;;;;;3.17;2.88;;;20.60;92.80;;;;;;5023650;28;20034;-77
2022/09/05 05:40:17;;;;;;;3.95;3.42;;;20.60;92.80;;;;;;5005719;28;20045;-78
2022/09/05 05:42:45;;;;;;;4.72;3.17;;;20.60;92.80;;;;;;5026051;28;20112;-77
2022/09/05 05:45:29;;;;;;;4.43;3.38;;;20.70;92.80;;;;;;5023922;28;20438;-77
2022/09/05 05:48:26;;;;;;;3.70;3.05;;;20.60;92.80;;;;;;5017929;28;20026;-77
2022/09/05 05:51:05;;;;;;;4.95;3.33;;;20.60;92.80;;;;;;5026793;28;20099;-77
2022/09/05 05:53:50;;;;;;;4.20;3.20;;;20.60;92.80;;;;;;5020917;28;20034;-77
2022/09/05 05:56:43;;;;;;;4.63;3.35;;;20.60;92.80;;;;;;5016625;28;20033;-78
2022/09/05 05:59:40;;;;;;;4.22;3.55;;;20.60;92.80;;;;;;5017322;28;20030;-77
2022/09/05 06:02:30;;;;;;;3.53;3.05;;;20.70;92.80;;;;;;5024661;28;20037;-77
2022/09/05 06:05:17;;;;;;;3.75;3.42;;;20.60;92.80;;;;;;5024196;28;20026;-78
2022/09/05 06:08:20;;;;;;;4.20;3.42;;;20.60;93.10;;;;;;5025454;28;20045;-78
2022/09/05 06:11:20;;;;;;;3.70;3.15;;;20.60;92.80;;;;;;5040933;28;20075;-77
2022/09/05 06:14:14;;;;;;;3.47;3.17;;;20.60;92.80;;;;;;5028394;28;20025;-77
2022/09/05 06:16:43;;;;;;;5.15;3.13;;;20.60;92.80;;;;;;5023962;28;20038;-77
2022/09/05 06:19:30;;;;;;;4.35;3.20;;;20.60;92.80;;;;;;5026068;28;20674;-77
2022/09/05 06:22:18;;;;;;;3.75;3.42;;;20.50;92.80;;;;;;5044019;28;20057;-77
2022/09/05 06:24:47;;;;;;;4.05;3.38;;;20.50;92.80;;;;;;5026019;28;20029;-76
2022/09/05 06:27:53;;;;;;;3.30;2.75;;;20.60;92.80;;;;;;5021566;28;20028;-77
2022/09/05 06:30:21;;;;;;;3.95;3.05;;;20.60;92.80;;;;;;5029295;28;20185;-77
2022/09/05 06:33:05;;;;;;;4.30;3.30;;;20.60;92.80;;;;;;5021324;28;20026;-77
2022/09/05 06:35:34;;;;;;;3.20;2.90;;;20.50;92.80;;;;;;5026611;28;20380;-77
2022/09/05 06:38:41;;;;;;;3.53;3.00;;;20.50;92.80;;;;;;5025531;28;20709;-77
2022/09/05 06:41:28;;;;;;;3.80;3.17;;;20.60;92.80;;;;;;5025707;28;20152;-77
2022/09/05 06:44:31;;;;;;;3.50;3.05;;;20.60;92.80;;;;;;5028782;28;20035;-77
2022/09/05 06:47:03;;;;;;;4.28;3.60;;;20.60;92.80;;;;;;5032675;28;20048;-76
2022/09/05 06:49:57;;;;;;;6.18;3.38;;;20.50;92.80;;;;;;5027850;28;20494;-77
2022/09/05 06:52:40;;;;;;;;;;;20.50;92.80;;;;;;5030307;28;20037;-77
2022/09/05 06:55:11;;;;;;;4.35;3.63;;;20.60;92.80;;;;;;5024799;28;19924;-77
2022/09/05 06:57:46;;;;;;;4.00;3.60;;;20.60;92.80;;;;;;5021280;28;20021;-77
2022/09/05 07:00:49;;;;;;;3.90;3.50;;;20.60;92.80;;;;;;5025431;28;20025;-76
2022/09/05 07:03:39;;;;;;;3.80;3.10;;;20.60;92.80;;;;;;5022326;28;20084;-77
2022/09/05 07:06:16;;;;;;;4.75;4.10;;;20.60;92.80;;;;;;5026066;28;20071;-76
2022/09/05 07:08:52;;;;;;;4.28;2.85;;;20.50;92.80;;;;;;5025188;28;20536;-76
2022/09/05 07:11:30;;;;;;;4.47;2.83;;;20.50;92.70;;;;;;5024176;28;20044;-76
2022/09/05 07:14:02;;;;;;;4.80;3.80;;;20.50;92.70;;;;;;5030953;28;20029;-76
2022/09/05 07:16:28;;;;;;;5.45;3.65;;;20.50;92.70;;;;;;5028163;28;20029;-77
2022/09/05 07:19:15;;;;;;;4.53;3.40;;;20.60;92.80;;;;;;5023364;28;20037;-77
2022/09/05 07:21:46;;;;;;;4.57;3.90;;;20.60;92.80;;;;;;5013664;28;20044;-76
2022/09/05 07:24:18;;;;;;;4.60;4.10;;;20.60;92.70;;;;;;5025158;28;20482;-76
2022/09/05 07:26:47;;;;;;;4.45;3.78;;;20.60;92.80;;;;;;5022525;28;20030;-76
2022/09/05 07:29:18;;;;;;;3.67;3.35;;;20.60;92.80;;;;;;5025363;28;20026;-76
2022/09/05 07:31:49;;;;;;;4.07;3.28;;;20.60;92.70;;;;;;5030667;28;20026;-77
2022/09/05 07:34:29;;;;;;;4.22;3.83;;;20.60;92.70;;;;;;5027874;28;20033;-77
2022/09/05 07:36:58;;;;;;;4.75;4.15;;;20.60;92.70;;;;;;5020255;28;20037;-77
2022/09/05 07:39:29;;;;;;;4.45;4.03;;;20.60;92.80;;;;;;5021937;28;20487;-77
2022/09/05 07:41:59;;;;;;;4.63;3.40;;;20.60;92.80;;;;;;5027307;28;20025;-77
2022/09/05 07:44:30;;;;;;;4.50;3.95;;;20.60;92.80;;;;;;5020482;28;20101;-77
2022/09/05 07:47:15;;;;;;;5.13;3.88;;;20.60;92.80;;;;;;5028566;28;20092;-76
2022/09/05 07:49:44;;;;;;;4.47;3.70;;;20.60;92.80;;;;;;5022014;28;20018;-77
2022/09/05 07:52:23;;;;;;;4.50;3.70;;;20.60;92.80;;;;;;5025238;28;20022;-77
2022/09/05 07:54:52;;;;;;;4.45;3.83;;;20.60;92.80;;;;;;5018753;28;20030;-77
2022/09/05 07:57:25;;;;;;;5.75;4.25;;;20.60;92.80;;;;;;5020542;28;20162;-77
2022/09/05 07:59:55;;;;;;;3.75;3.35;;;20.60;92.80;;;;;;5027802;28;20029;-76
2022/09/05 08:02:20;;;;;;;5.15;3.80;;;20.60;92.70;;;;;;5023407;28;20449;-77
2022/09/05 08:04:46;;;;;;;3.58;3.28;;;20.60;92.70;;;;;;5029880;28;20037;-77
2022/09/05 08:07:25;;;;;;;4.32;3.60;;;20.60;92.70;;;;;;5026416;28;20029;-76
2022/09/05 08:09:55;;;;;;;5.15;4.65;;;20.60;92.70;;;;;;5019347;28;20029;-77
2022/09/05 08:13:02;;;;;;;4.65;4.03;;;20.60;92.80;;;;;;5029431;28;20797;-76
2022/09/05 08:15:29;;;;;;;6.30;4.40;;;20.60;92.80;;;;;;4984941;28;20026;-77
2022/09/05 08:18:16;;;;;;;4.88;4.38;;;20.60;92.80;;;;;;5017936;28;20099;-79
2022/09/05 08:20:56;;;;;;;4.55;4.15;;;20.60;92.80;;;;;;5029409;28;20064;-77
2022/09/05 08:23:57;;;;;;;5.50;3.95;;;20.60;92.80;;;;;;5024973;28;20092;-77
2022/09/05 08:26:36;;;;;;;4.43;3.92;;;20.70;92.90;;;;;;5029376;28;20041;-77
2022/09/05 08:29:14;;;;;;;5.47;4.50;;;20.70;92.90;;;;;;5028878;28;20028;-77
2022/09/05 08:31:54;;;;;;;4.13;3.72;;;20.60;92.80;;;;;;5025188;28;20033;-77
2022/09/05 08:34:39;;;;;;;5.78;3.58;;;20.60;92.80;;;;;;5023101;28;20037;-77
2022/09/05 08:37:08;;;;;;;5.63;4.32;;;20.60;92.80;;;;;;5041082;28;20033;-77
2022/09/05 08:39:35;;;;;;;4.75;3.97;;;20.60;92.80;;;;;;5024655;28;20022;-76
2022/09/05 08:42:38;;;;;;;4.22;3.83;;;20.60;92.80;;;;;;5023043;28;20076;-76
2022/09/05 08:45:10;;;;;;;4.63;4.15;;;20.60;92.80;;;;;;5021982;28;20051;-77
2022/09/05 08:47:57;;;;;;;5.45;4.72;;;20.60;92.80;;;;;;5024907;28;20033;-76
2022/09/05 08:50:47;;;;;;;4.28;3.88;;;20.60;92.90;;;;;;5025744;28;20393;-77
2022/09/05 08:53:46;;;;;;;5.25;3.80;;;20.60;92.80;;;;;;5034349;28;20030;-77
2022/09/05 08:56:30;;;;;;;5.05;3.60;;;20.60;92.80;;;;;;5023891;28;20128;-76
2022/09/05 08:59:05;;;;;;;;;;;20.60;92.90;;;;;;5026905;28;20501;-77
2022/09/05 09:01:42;;;;;;;4.45;3.83;;;20.60;93.00;;;;;;5025718;28;19917;-77
2022/09/05 09:04:44;;;;;;;5.35;3.55;;;20.70;92.90;;;;;;5030897;28;20116;-76
2022/09/05 09:07:29;;;;;;;6.75;5.40;;;20.60;92.90;;;;;;5023383;28;20038;-76
2022/09/05 09:10:22;;;;;;;4.18;3.72;;;20.60;92.90;;;;;;5025861;28;20044;-76
2022/09/05 09:13:03;;;;;;;4.57;4.07;;;20.60;92.90;;;;;;5041163;28;20026;-77
2022/09/05 09:15:43;;;;;;;5.13;4.35;;;20.60;92.80;;;;;;5022308;28;20025;-77
2022/09/05 09:18:17;;;;;;;8.65;4.68;;;20.60;92.90;;;;;;5020789;28;20029;-76
2022/09/05 09:20:48;;;;;;;5.13;4.20;;;20.70;92.90;;;;;;5024795;28;20467;-77
2022/09/05 09:23:20;;;;;;;5.40;4.15;;;20.60;92.80;;;;;;5025637;28;20038;-77
2022/09/05 09:26:14;;;;;;;4.35;3.95;;;20.70;92.80;;;;;;5025108;28;20025;-76
2022/09/05 09:28:49;;;;;;;5.25;4.45;;;20.70;92.80;;;;;;5021410;28;20046;-76
2022/09/05 09:31:49;;;;;;;5.25;4.15;;;20.60;92.70;;;;;;5022627;28;20394;-76
2022/09/05 09:34:28;;;;;;;4.72;3.92;;;20.70;92.80;;;;;;5027745;28;20116;-77
2022/09/05 09:37:26;;;;;;;5.07;4.50;;;20.70;92.80;;;;;;5027606;28;20474;-76
2022/09/05 09:40:17;;;;;;;6.90;4.63;;;20.70;92.70;;;;;;5023424;28;20041;-76
2022/09/05 09:42:53;;;;;;;4.50;4.00;;;20.70;92.70;;;;;;5025780;28;20091;-77
2022/09/05 09:45:57;;;;;;;4.82;4.10;;;20.70;92.70;;;;;;5018288;28;20124;-77
2022/09/05 09:48:38;;;;;;;5.32;4.82;;;20.70;92.70;;;;;;5030215;28;20033;-77
2022/09/05 09:51:31;;;;;;;5.05;4.55;;;20.70;92.70;;;;;;5028998;28;20037;-76
2022/09/05 09:54:33;;;;;;;7.10;4.63;;;20.70;92.70;;;;;;5034221;28;20037;-77
2022/09/05 09:57:24;;;;;;;7.28;4.88;;;20.70;92.60;;;;;;5021243;28;20030;-77
2022/09/05 10:00:03;;;;;;;5.53;4.88;;;20.70;92.60;;;;;;5025390;28;20033;-77
2022/09/05 10:02:35;;;;;;;6.80;4.45;;;20.70;92.60;;;;;;5023584;28;20071;-77
2022/09/05 10:05:19;;;;;;;4.65;4.13;;;20.70;92.60;;;;;;5027138;28;20133;-76
2022/09/05 10:08:06;;;;;;;5.18;4.60;;;20.70;92.60;;;;;;5039259;28;20477;-77
2022/09/05 10:10:35;;;;;;;5.60;4.15;;;20.70;92.50;;;;;;5028036;28;20022;-77
2022/09/05 10:13:25;;;;;;;5.35;4.57;;;20.70;92.40;;;;;;5019766;28;20056;-77
2022/09/05 10:15:56;;;;;;;4.82;4.32;;;20.70;92.40;;;;;;5042141;28;20502;-77
2022/09/05 10:18:31;;;;;;;5.15;4.60;;;20.70;92.40;;;;;;5027349;28;20433;-77
2022/09/05 10:21:19;;;;;;;5.80;4.95;;;20.70;92.40;;;;;;5030235;28;20508;-77
2022/09/05 10:24:13;;;;;;;5.68;4.90;;;20.80;92.30;;;;;;5044240;28;20493;-77
2022/09/05 10:26:51;;;;;;;5.93;4.45;;;20.70;92.30;;;;;;5040196;28;20100;-77
2022/09/05 10:29:40;;;;;;;8.00;5.15;;;20.80;92.30;;;;;;5042893;28;20088;-77
2022/09/05 10:32:37;;;;;;;4.78;3.88;;;20.80;92.30;;;;;;5039294;28;20498;-77
2022/09/05 10:35:18;;;;;;;5.05;4.55;;;20.80;92.20;;;;;;5040161;28;20120;-77
2022/09/05 10:38:06;;;;;;;5.00;4.40;;;20.80;92.20;;;;;;5024368;28;20460;-77
2022/09/05 10:40:34;;;;;;;5.15;4.65;;;20.80;92.20;;;;;;5020015;28;20045;-77
2022/09/05 10:43:18;;;;;;;5.28;4.78;;;20.80;92.10;;;;;;5025162;28;20371;-77
2022/09/05 10:45:56;;;;;;;;;;;20.80;92.10;;;;;;5033418;28;20141;-77
2022/09/05 10:48:45;;;;;;;4.38;3.97;;;20.80;92.10;;;;;;5022900;28;19917;-77
2022/09/05 10:51:21;;;;;;;4.18;3.78;;;20.80;92.10;;;;;;5025944;28;20091;-77
2022/09/05 10:54:32;;;;;;;5.25;4.10;;;20.80;92.10;;;;;;5029197;28;20025;-78
2022/09/05 10:57:35;;;;;;;4.55;4.15;;;20.80;92.00;;;;;;5027832;28;20049;-77
2022/09/05 11:00:32;;;;;;;7.10;4.28;;;20.80;92.00;;;;;;5032857;28;20087;-77
2022/09/05 11:03:00;;;;;;;4.55;3.45;;;20.80;92.00;;;;;;5024168;28;20026;-77
2022/09/05 11:05:36;;;;;;;5.28;4.57;;;20.80;91.90;;;;;;5028547;28;20037;-79
2022/09/05 11:08:08;;;;;;;4.13;3.60;;;20.80;91.80;;;;;;5026413;28;20025;-77
2022/09/05 11:10:43;;;;;;;4.38;3.95;;;20.80;91.90;;;;;;5030754;28;20037;-78
2022/09/05 11:13:13;;;;;;;4.10;3.70;;;20.80;91.90;;;;;;5016273;28;20036;-78
2022/09/05 11:15:51;;;;;;;3.95;3.63;;;20.80;91.80;;;;;;5028077;28;20473;-78
2022/09/05 11:18:37;;;;;;;4.07;3.45;;;20.90;91.80;;;;;;5027410;28;20036;-78
2022/09/05 11:21:22;;;;;;;4.93;4.00;;;20.90;91.80;;;;;;5027545;28;20033;-78
2022/09/05 11:24:04;;;;;;;4.78;4.28;;;20.90;91.80;;;;;;5024410;28;20021;-78
2022/09/05 11:26:56;;;;;;;4.25;3.85;;;20.90;91.70;;;;;;5025430;28;20025;-78
2022/09/05 11:29:34;;;;;;;4.65;4.13;;;20.90;91.70;;;;;;5020061;28;20102;-79
2022/09/05 11:32:22;;;;;;;6.00;3.90;;;20.90;91.50;;;;;;5023135;28;20720;-79
2022/09/05 11:35:11;;;;;;;4.60;4.10;;;20.90;91.60;;;;;;5017376;28;20120;-78
2022/09/05 11:37:58;;;;;;;5.05;3.72;;;20.90;91.60;;;;;;5021650;28;20029;-78
2022/09/05 11:40:51;;;;;;;4.10;3.70;;;20.90;91.50;;;;;;5021592;28;20506;-78
2022/09/05 11:43:51;;;;;;;4.03;3.63;;;20.90;91.50;;;;;;5028745;28;20123;-78
2022/09/05 11:46:42;;;;;;;4.60;3.85;;;20.90;91.40;;;;;;5023242;28;20108;-78
2022/09/05 11:49:22;;;;;;;4.47;3.60;;;20.90;91.50;;;;;;5029887;28;20040;-79
2022/09/05 11:52:21;;;;;;;3.90;3.25;;;20.90;91.50;;;;;;5047952;28;20027;-79
2022/09/05 11:55:02;;;;;;;4.03;3.63;;;20.90;91.50;;;;;;5046954;28;20549;-78
2022/09/05 11:57:39;;;;;;;3.85;3.45;;;20.90;91.50;;;;;;5028167;28;20033;-77
2022/09/05 12:00:18;;;;;;;4.03;3.17;;;20.90;91.40;;;;;;5027607;28;20042;-78
2022/09/05 12:03:10;;;;;;;4.10;3.72;;;20.90;91.40;;;;;;5020428;28;20057;-79
2022/09/05 12:06:12;;;;;;;4.90;3.40;;;20.90;91.40;;;;;;5021833;28;20064;-78
2022/09/05 12:08:44;;;;;;;4.97;3.25;;;21.00;91.40;;;;;;5017943;28;20091;-79
2022/09/05 12:11:47;;;;;;;3.55;2.83;;;21.00;91.40;;;;;;5018636;28;20029;-78
2022/09/05 12:14:43;;;;;;;4.45;3.70;;;20.90;91.30;;;;;;5027809;28;20045;-78
2022/09/05 12:17:45;;;;;;;6.60;3.50;;;21.00;91.40;;;;;;5029346;28;20040;-79
2022/09/05 12:20:14;;;;;;;4.45;3.85;;;21.00;90.80;;;;;;5032852;28;20053;-79
2022/09/05 12:22:55;;;;;;;4.43;3.75;;;21.00;90.70;;;;;;5030891;28;20052;-79
2022/09/05 12:25:46;;;;;;;4.93;4.43;;;21.00;90.90;;;;;;5023286;28;20552;-79
2022/09/05 12:28:23;;;;;;;4.15;3.75;;;21.00;90.80;;;;;;5017914;28;20049;-79
2022/09/05 12:30:49;;;;;;;5.60;4.35;;;21.00;90.90;;;;;;5023654;28;20037;-79
2022/09/05 12:33:21;;;;;;;4.25;3.85;;;21.00;90.90;;;;;;5022766;28;20040;-79
2022/09/05 12:36:01;;;;;;;8.38;4.93;;;21.00;90.80;;;;;;5028091;28;20025;-79
2022/09/05 12:38:36;;;;;;;4.57;4.18;;;21.10;90.80;;;;;;5044740;28;20036;-78
2022/09/05 12:41:17;;;;;;;4.38;3.50;;;21.00;90.90;;;;;;5028269;28;20029;-78
2022/09/05 12:44:16;;;;;;;4.07;3.67;;;21.10;90.90;;;;;;5028298;28;20068;-78
2022/09/05 12:46:44;;;;;;;4.47;3.33;;;21.10;90.80;;;;;;5016690;28;20553;-78
2022/09/05 12:49:40;;;;;;;5.38;4.30;;;21.10;90.90;;;;;;5018732;28;20030;-78
2022/09/05 12:52:20;;;;;;;4.78;4.25;;;21.10;90.90;;;;;;5013213;28;20037;-79
2022/09/05 12:54:54;;;;;;;4.05;3.45;;;21.10;90.90;;;;;;5026623;28;20167;-78
2022/09/05 12:57:29;;;;;;;4.95;4.00;;;21.10;90.90;;;;;;5029874;28;20395;-79
2022/09/05 13:00:00;;;;;;;3.55;3.25;;;21.10;90.80;;;;;;5024997;28;20033;-78
2022/09/05 13:02:31;;;;;;;4.60;3.55;;;21.10;90.80;;;;;;5030661;28;20029;-78
2022/09/05 13:05:02;;;;;;;4.35;3.95;;;21.10;90.70;;;;;;5033114;28;20490;-78
2022/09/05 13:07:41;;;;;;;4.07;3.45;;;21.10;90.70;;;;;;5024227;28;20030;-77
2022/09/05 13:10:39;;;;;;;4.22;3.83;;;21.10;90.70;;;;;;5017952;28;20117;-78
2022/09/05 13:13:13;;;;;;;3.90;3.50;;;21.10;90.60;;;;;;5030154;28;20032;-77
2022/09/05 13:15:47;;;;;;;4.68;4.28;;;21.10;90.60;;;;;;5037780;28;20034;-78
2022/09/05 13:18:36;;;;;;;4.55;3.65;;;21.10;90.60;;;;;;5029074;28;20032;-78
2022/09/05 13:21:08;;;;;;;5.00;4.40;;;21.20;90.60;;;;;;5028252;28;20075;-78
2022/09/05 13:23:57;;;;;;;5.78;4.63;;;21.10;90.50;;;;;;5028465;28;20108;-78
2022/09/05 13:26:35;;;;;;;4.72;4.22;;;21.20;90.50;;;;;;5031979;28;20029;-78
2022/09/05 13:29:17;;;;;;;4.32;3.92;;;21.20;90.40;;;;;;5040404;28;20079;-78
2022/09/05 13:31:44;;;;;;;4.65;4.15;;;21.20;90.40;;;;;;5030995;28;20363;-78
2022/09/05 13:34:23;;;;;;;6.07;4.45;;;21.20;90.40;;;;;;5024342;28;20025;-78
2022/09/05 13:37:24;;;;;;;4.50;4.10;;;21.20;90.30;;;;;;5027916;28;20025;-77
2022/09/05 13:39:53;;;;;;;4.80;4.30;;;21.20;90.30;;;;;;5026741;28;20038;-78
2022/09/05 13:42:22;;;;;;;4.72;4.28;;;21.20;90.30;;;;;;5022654;28;20120;-77
2022/09/05 13:44:59;;;;;;;3.97;3.40;;;21.20;90.40;;;;;;5024482;28;20031;-77
2022/09/05 13:47:43;;;;;;;4.53;4.13;;;21.20;90.40;;;;;;5021758;28;20026;-78
2022/09/05 13:50:21;;;;;;;4.00;3.60;;;21.20;90.30;;;;;;5027966;28;20034;-78
2022/09/05 13:52:53;;;;;;;7.13;3.88;;;21.20;90.20;;;;;;5029250;28;20040;-78
2022/09/05 13:55:34;;;;;;;4.15;3.75;;;21.20;90.30;;;;;;5028238;28;20118;-78
2022/09/05 13:58:13;;;;;;;5.28;4.45;;;21.20;90.30;;;;;;5029001;28;20113;-77
2022/09/05 14:00:42;;;;;;;4.88;3.95;;;21.20;90.30;;;;;;5025777;28;20033;-78
2022/09/05 14:03:59;;;;;;;4.60;4.20;;;21.30;90.30;;;;;;5033529;28;20030;-78
2022/09/05 14:06:27;;;;;;;4.28;3.88;;;21.30;90.30;;;;;;4992032;28;20504;-78
2022/09/05 14:09:29;;;;;;;4.07;3.67;;;21.20;90.30;;;;;;5012767;28;20135;-78